Frédéric Gonzalez

Olheiro - Olympique de Marseille
20 Jan 2028
Quinta-feira
Processo

Personalidade

Adaptabilidade (4) Ambição (6) Controvérsia (4) Lealdade (4) Pressão (20) Profissionalismo (5) Espírito Esportivo (17) Temperamento (18)

Perfil

Estilo de Treinamento Democrático
Licença Continental C
Determinação 12
Gestão de Pessoas 7
Motivação 15
Disciplina 13
Satisfação no Trabalho
100%
Fadiga
0%
Função Olheiro
Salário 98.9K p/s
Contrato 14.03.2029

Desempenho

Comportamento Bom
Eficácia do Treinamento
48%
Desenvolvimento do Jogador
35%
Prevenção de Lesões
75%
Implementação Tática
40%

Eventos Recentes

Participando de desenvolvimento profissional agora
Participou de uma reunião de recrutamento agora
Recomendou um alvo de transferência agora
Recomendou um alvo de transferência agora
Recomendou um alvo de transferência 7d atrás
Recomendou um alvo de transferência 7d atrás
Participando de desenvolvimento profissional 7d atrás
Participando de desenvolvimento profissional 7d atrás

Monitorando agora

124
Jogador Clube Status Habilidade Confiança Observado Última observação Último voto
Aron Dønnum Toulouse FC Ativo 132 / 140 58% 1 10.01.2028 -
Nathaniel Adjei FC Lorient Ativo 113 / 119 58% 1 01.01.2028 -
Kenan Yıldız Juventus Ativo 165 / 162 40% 1 29.12.2027 -
Charles De Ketelaere Palermo Ativo 159 / 156 40% 1 29.12.2027 -
Jayden Danns Wigan Athletic Ativo 146 / 141 40% 2 28.12.2027 -
Siyabonga Mabena Chippa United Ativo 130 / 138 40% 2 28.12.2027 -
Luca Williams-Barnett Tranmere Rovers Ativo 111 / 131 40% 2 27.12.2027 -
Ryan McAidoo Gillingham Ativo 119 / 127 40% 2 27.12.2027 -
Archie Gray Derby County Ativo 154 / 152 40% 5 26.12.2027 -
Lewis Orford Swindon Town Ativo 101 / 114 40% 1 26.12.2027 -
Myles Lewis-Skelly Birmingham Ativo 151 / 162 40% 4 25.12.2027 -
Gilberto Mora Atlético Madrid Ativo 130 / 139 40% 2 25.12.2027 -
Estêvão Millwall Ativo 150 / 154 40% 2 24.12.2027 -
Bop Guèye Haugesund Ativo 100 / 117 40% 3 24.12.2027 -
Liam Delap Nottingham Forest Ativo 148 / 146 40% 3 23.12.2027 -
Igor Jesus Newcastle United Ativo 140 / 145 40% 3 23.12.2027 -
Josh Nichols Tranmere Rovers Ativo 111 / 128 40% 1 21.12.2027 -
Gabriel Martinelli Brighton Ativo 162 / 171 40% 2 20.12.2027 -
Darwin Núñez Al-Hilal Ativo 169 / 159 40% 1 20.12.2027 -
Kevin Schade Brentford Ativo 147 / 146 40% 5 18.12.2027 -
Dango Ouattara Brentford Ativo 161 / 154 40% 3 15.12.2027 -
Assane Diao Lazio Ativo 156 / 160 40% 3 14.12.2027 -
David Valencia Alianza Petrolera Ativo 124 / 134 40% 5 13.12.2027 -
Seb Ferdinand Chesterfield Ativo 108 / 130 40% 1 13.12.2027 -
Shea Lacey Wolverhampton Ativo 125 / 144 40% 1 12.12.2027 -
Franco Minerva Platense Ativo 122 / 128 40% 3 10.12.2027 -
Dani Díaz Real Sociedad Ativo 116 / 117 40% 2 10.12.2027 -
Dmitry Pestryakov Dinamo Moscow Ativo 102 / 125 40% 2 09.12.2027 -
Álex Marchal Real Sociedad Ativo 115 / 123 40% 1 09.12.2027 -
Ez Abde Girona Ativo 166 / 149 40% 1 08.12.2027 -
Evann Guessand Aston Villa Ativo 141 / 142 40% 1 08.12.2027 -
Tomás Aranda Boca Juniors Ativo 107 / 115 40% 3 07.12.2027 -
Noam Obougou Jacquet Le Havre AC Ativo 107 / 127 40% 2 07.12.2027 -
Lucas Høgsberg RC Strasbourg Ativo 134 / 150 40% 3 04.12.2027 -
Ryan Kavuma-McQueen Accrington Stanley Ativo 125 / 124 40% 1 03.12.2027 -
Nicolas Jackson Aston Villa Ativo 159 / 154 40% 2 30.11.2027 -
Hervin Goyes Deportivo Pasto Ativo 96 / 103 40% 3 28.11.2027 -
Rudy Matondo AC Ajaccio Ativo 114 / 113 40% 1 27.11.2027 -
Lorenzo Lucca Napoli Ativo 141 / 149 40% 1 26.11.2027 -
Ansu Fati Monaco Ativo 142 / 152 40% 1 26.11.2027 -
Mateus Mané Manchester United Ativo 148 / 154 40% 1 25.11.2027 -
Mads Bomholt Stabaek Ativo 110 / 114 40% 3 23.11.2027 -
Fábio Carvalho Sheffield Wednesday Ativo 142 / 145 40% 1 22.11.2027 -
Hamza Igamane LOSC Lille Ativo 151 / 138 40% 1 22.11.2027 -
Iliman N'Diaye Everton Ativo 154 / 166 40% 3 20.11.2027 -
Donyell Malen AS Roma Ativo 149 / 149 40% 1 20.11.2027 -
Isaac Romero Monaco Ativo 154 / 137 40% 1 17.11.2027 -
Mateo Silvetti Los Angeles Football Club Ativo 141 / 116 40% 4 16.11.2027 -
Santiago López Independiente Ativo 124 / 121 40% 2 16.11.2027 -
Thiago Brentford Ativo 163 / 149 40% 1 16.11.2027 -
Brennan Johnson Stoke City Ativo 160 / 151 40% 2 15.11.2027 -
Joaquín Panichelli Le Havre AC Ativo 141 / 153 40% 1 15.11.2027 -
Jesús Rodríguez Como Ativo 158 / 155 40% 2 13.11.2027 -
Igor Tyjon Doncaster Rovers Ativo 107 / 119 40% 1 12.11.2027 -
Luis Otávio Colorado Rapids Ativo 115 / 119 40% 3 11.11.2027 -
Soriba Diaoune AC Ajaccio Ativo 121 / 137 40% 2 07.11.2027 -
Themba Dala Ajax Cape Town Ativo 125 / 119 40% 3 07.11.2027 -
Christopher Nkunku AC Milan Ativo 161 / 154 40% 1 06.11.2027 -
Ethan Williams Peterborough United Ativo 113 / 121 40% 2 03.11.2027 -
Sam Amo-Ameyaw RC Strasbourg Ativo 142 / 135 40% 1 03.11.2027 -
Kutlwano Letlhaku Ajax Cape Town Ativo 126 / 133 40% 1 31.10.2027 -
Sebastián Ramírez Jaguares Ativo 106 / 107 40% 1 27.10.2027 -
Jonathan David Juventus Ativo 148 / 151 40% 1 25.10.2027 -
Loïs Openda Juventus Ativo 151 / 155 40% 1 24.10.2027 -
Joel Medina Independiente Ativo 116 / 123 40% 3 23.10.2027 -
Noah Okafor Leeds United Ativo 148 / 146 40% 1 16.10.2027 -
Paulinho Palmeiras Ativo 145 / 142 40% 1 16.10.2027 -
Kauã Moraes Cruzeiro Ativo 118 / 125 40% 1 07.10.2027 -
Mateo Peralta Danubio Ativo 109 / 114 40% 3 05.10.2027 -
Tibe De Vlieger KAA Gent Ativo 103 / 124 40% 2 01.10.2027 -
Jan Virgili Club Brugge Ativo 140 / 132 40% 1 28.09.2027 -
Pape Diong Westerlo Ativo 110 / 124 40% 1 25.09.2027 -
Alejandro Almaraz Nueva Chicago Ativo 113 / 118 40% 1 23.09.2027 -
Ben Gannon Doak Bournemouth Ativo 149 / 152 40% 1 17.09.2027 -
Noah Streit CF Montreal Ativo 112 / 125 40% 1 17.09.2027 -
Caleb Yirenkyi Coventry City Ativo 149 / 144 40% 1 16.09.2027 -
Diogo Guzmán Montevideo City Torque Ativo 122 / 111 40% 2 15.09.2027 -
Josh King Chelsea Ativo 133 / 158 40% 1 15.09.2027 -
Milan Roganović Racing Genk Ativo 119 / 127 40% 1 14.09.2027 -
Johan Manzambi Newcastle United Ativo 145 / 144 40% 1 10.09.2027 -
Jesper Reitan-Sunde Stabaek Ativo 121 / 109 40% 1 08.09.2027 -
Mamadou Diakhon Club Brugge Ativo 116 / 121 40% 1 06.09.2027 -
Guillaume Restes Toulouse FC Ativo 154 / 151 40% 1 19.08.2027 -
Jakub Stolarczyk Santos Ativo 130 / 146 40% 1 19.08.2027 -
Christos Mouzakitis Hull City Ativo 136 / 143 40% 1 05.07.2027 -
Frank Magri Toulouse FC Ativo 134 / 134 58% 1 14.06.2027 -
Moses Simon Paris FC Ativo 129 / 142 58% 1 01.06.2027 Aprovar
Berke Özer LOSC Lille Ativo 147 / 129 40% 1 31.05.2027 -
Lamine Camara Monaco Ativo 143 / 150 40% 7 29.05.2027 -
Yehor Yarmoliuk Brentford Ativo 159 / 152 40% 4 29.05.2027 -
Ilay Camara Anderlecht Ativo 133 / 133 40% 3 27.05.2027 -
Jarrad Branthwaite Everton Ativo 159 / 161 40% 5 27.05.2027 -
Tino Livramento Newcastle United Ativo 166 / 162 40% 6 25.05.2027 -
Ronnie Edwards Queens Park Rangers Ativo 120 / 136 40% 1 25.05.2027 -
Adam Wharton Crystal Palace Ativo 161 / 161 40% 4 23.05.2027 -
Bosun Lawal Stoke City Ativo 137 / 126 40% 1 22.05.2027 -
Tiago Santos LOSC Lille Ativo 139 / 153 40% 3 18.05.2027 -
Murillo Nottingham Forest Ativo 146 / 145 40% 2 18.05.2027 -
Aaron Hickey Brentford Ativo 139 / 145 40% 2 17.05.2027 -
Shea Charles Southampton Ativo 130 / 143 40% 2 15.05.2027 -
Juan Mosquera Sheffield Wednesday Ativo 127 / 120 40% 1 15.05.2027 -
Sidny Lopes Cabral Trabzonspor Ativo 122 / 125 40% 2 14.05.2027 -
Ousmane Diomande Nottingham Forest Ativo 158 / 157 40% 2 12.05.2027 -
Toby Collyer West Bromwich Albion Ativo 130 / 136 40% 2 11.05.2027 -
Rico Lewis Manchester City Ativo 147 / 152 40% 3 10.05.2027 -
Callum Doyle Wrexham Ativo 139 / 125 40% 1 06.05.2027 -
Soungoutou Magassa West Ham United Ativo 140 / 141 40% 5 28.04.2027 -
Noah Sadiki Sunderland Ativo 144 / 138 40% 1 26.04.2027 -
Kristoffer Lund Birmingham Ativo 135 / 122 40% 2 22.04.2027 -
Bradley Locko Stade Brestois Ativo 148 / 139 40% 2 19.04.2027 -
Matteo Dams Club Brugge Ativo 132 / 133 40% 1 17.04.2027 -
Joel Ordóñez Club Brugge Ativo 127 / 134 40% 1 13.04.2027 -
Teden Mengi Luton Town Ativo 120 / 134 40% 1 11.04.2027 -
Freddie Potts Club Brugge Ativo 128 / 138 40% 1 02.04.2027 -
Bright Arrey-Mbi Braga Ativo 141 / 137 40% 2 28.03.2027 -
Samson Baidoo RC Lens Ativo 144 / 154 40% 1 22.03.2027 -
Miloš Kerkez Liverpool Ativo 152 / 159 40% 2 16.03.2027 -
Diego Coppola Paris FC Ativo 143 / 139 40% 1 12.03.2027 -
Kevin Amaro Racing Genk Ativo 135 / 133 40% 1 08.03.2027 -
Kevin Vazquez Cruz Azul Ativo 138 / 153 40% 1 06.03.2027 -
Louis Morin Tours Ativo 136 / 126 40% 1 06.03.2027 -
Rémi Lemoine Chamois Niortais Ativo 167 / 166 58% 1 18.01.2027 Aprovar
Erick Reyes Toluca Ativo 144 / 151 40% 1 31.12.2026 -
Arthur Avom Ebong FC Lorient Ativo 134 / 143 58% 1 24.08.2026 -